createdAt,value
2018-09-20T00:05:44.139Z,15.66
2018-09-20T00:16:42.146Z,15.61
2018-09-20T00:27:40.484Z,15.55
2018-09-20T00:38:40.539Z,15.49
2018-09-20T00:49:30.455Z,15.34
2018-09-20T01:00:31.754Z,15.42
2018-09-20T01:11:32.208Z,15.26
2018-09-20T01:22:31.070Z,15.21
2018-09-20T01:33:30.848Z,15.23
2018-09-20T01:44:31.871Z,15.27
2018-09-20T01:55:27.907Z,15.10
2018-09-20T02:06:22.522Z,14.93
2018-09-20T02:17:22.708Z,14.88
2018-09-20T02:28:23.136Z,14.90
2018-09-20T02:39:24.751Z,14.88
2018-09-20T02:50:23.261Z,14.83
2018-09-20T03:01:23.297Z,14.84
2018-09-20T03:12:25.098Z,14.72
2018-09-20T03:23:26.564Z,14.72
2018-09-20T03:34:22.758Z,14.75
2018-09-20T03:45:21.604Z,14.59
2018-09-20T03:56:24.852Z,14.57
2018-09-20T04:07:27.956Z,14.59
2018-09-20T04:18:31.195Z,14.69
2018-09-20T04:29:32.422Z,14.59
2018-09-20T04:40:33.791Z,14.47
2018-09-20T04:51:36.109Z,14.52
2018-09-20T05:02:39.371Z,14.53
2018-09-20T05:13:40.814Z,14.59
2018-09-20T05:24:41.023Z,14.68
2018-09-20T05:35:43.810Z,14.88
2018-09-20T05:46:47.179Z,15.10
2018-09-20T05:57:50.169Z,15.43
2018-09-20T06:08:52.833Z,15.76
2018-09-20T06:19:46.326Z,16.06
2018-09-20T06:30:49.540Z,16.50
2018-09-20T06:41:51.284Z,16.78
2018-09-20T06:52:55.281Z,17.14
2018-09-20T07:03:55.627Z,17.54
2018-09-20T07:14:55.486Z,18.02
2018-09-20T07:25:54.119Z,18.73
2018-09-20T07:36:54.433Z,19.20
2018-09-20T07:47:59.326Z,19.72
2018-09-20T07:58:59.620Z,20.26
2018-09-20T08:10:03.908Z,20.56
2018-09-20T08:21:02.631Z,21.08
2018-09-20T08:32:06.360Z,21.36
2018-09-20T08:43:05.350Z,21.64
2018-09-20T08:54:04.171Z,21.97
2018-09-20T09:05:06.925Z,22.52
2018-09-20T09:16:11.120Z,22.94
2018-09-20T09:27:12.663Z,23.08
2018-09-20T09:38:16.533Z,23.75
2018-09-20T09:49:20.639Z,23.83
2018-09-20T10:00:19.344Z,24.56
2018-09-20T10:11:19.058Z,24.97
2018-09-20T10:22:22.468Z,25.31
2018-09-20T10:33:22.383Z,25.87
2018-09-20T10:44:20.347Z,26.05
2018-09-20T10:55:21.060Z,27.02
2018-09-20T11:06:21.019Z,27.92
2018-09-20T11:17:19.936Z,27.32
2018-09-20T11:28:22.903Z,27.07
2018-09-20T11:39:20.735Z,27.83
2018-09-20T11:50:21.182Z,27.23
2018-09-20T12:01:19.017Z,27.05
2018-09-20T12:12:20.396Z,26.89
2018-09-20T12:23:23.136Z,27.80
2018-09-20T12:34:23.910Z,27.95
2018-09-20T12:45:25.447Z,27.99
2018-09-20T12:56:28.641Z,27.42
2018-09-20T13:07:26.953Z,28.57
2018-09-20T13:18:21.823Z,28.50
2018-09-20T13:29:18.047Z,30.29
2018-09-20T13:40:09.829Z,29.01
2018-09-20T13:51:11.894Z,29.32
2018-09-20T14:02:17.945Z,29.63
2018-09-20T14:13:09.528Z,29.28
2018-09-20T14:24:02.986Z,28.25
2018-09-20T14:34:56.871Z,27.79
2018-09-20T14:45:45.201Z,26.97
2018-09-20T14:56:40.811Z,26.35
2018-09-20T15:07:32.679Z,26.27
2018-09-20T15:18:31.701Z,26.11
2018-09-20T15:29:29.381Z,25.62
2018-09-20T15:40:11.221Z,25.53
2018-09-20T15:51:07.099Z,25.62
2018-09-20T16:02:10.892Z,24.90
2018-09-20T16:13:04.876Z,24.41
2018-09-20T16:24:04.377Z,23.24
2018-09-20T16:35:06.002Z,22.49
2018-09-20T16:46:08.460Z,21.86
2018-09-20T16:57:10.852Z,21.39
2018-09-20T17:08:11.993Z,21.05
2018-09-20T17:19:15.212Z,20.47
2018-09-20T17:30:17.490Z,20.10
2018-09-20T17:41:17.970Z,19.83
2018-09-20T17:52:11.614Z,19.57
2018-09-20T18:03:06.138Z,19.35
2018-09-20T18:14:01.031Z,18.99
2018-09-20T18:25:01.698Z,18.79
2018-09-20T18:35:56.514Z,18.58
2018-09-20T18:46:51.953Z,18.50
2018-09-20T18:57:48.359Z,18.29
2018-09-20T19:08:43.000Z,18.19
2018-09-20T19:19:39.430Z,17.95
2018-09-20T19:30:41.271Z,17.88
2018-09-20T19:41:37.961Z,17.73
2018-09-20T19:52:33.060Z,17.57
2018-09-20T20:03:32.318Z,17.60
2018-09-20T20:14:32.286Z,17.43
2018-09-20T20:25:29.180Z,17.30
2018-09-20T20:36:27.342Z,17.30
2018-09-20T20:47:24.302Z,17.13
2018-09-20T20:58:23.276Z,16.99
2018-09-20T21:09:27.120Z,16.89
2018-09-20T21:20:26.602Z,16.84
2018-09-20T21:31:29.742Z,16.74
2018-09-20T21:42:29.065Z,16.67
2018-09-20T21:53:29.291Z,16.73
2018-09-20T22:04:28.348Z,16.65
2018-09-20T22:15:27.270Z,16.53
2018-09-20T22:26:26.121Z,16.45
2018-09-20T22:37:25.151Z,16.26
2018-09-20T22:48:26.388Z,16.20
2018-09-20T22:59:26.977Z,16.20
2018-09-20T23:10:30.125Z,16.12
2018-09-20T23:21:34.029Z,16.06
2018-09-20T23:32:34.905Z,15.96
2018-09-20T23:43:36.143Z,15.85
2018-09-20T23:54:39.871Z,15.78
